Time;durP1;ratioP1;P1;durP2;ratioP2;P2;SDS_P1;SDS_P2;PMS_P1;PMS_P2;Temp;Humidity;BMP_temperature;BMP_pressure;BME280_temperature;BME280_humidity;BME280_pressure;Samples;Min_cycle;Max_cycle;Signal;HPM_P1;HPM_P2
2023/07/20 00:00:18;;;;;;;6.03;5.47;;;16.70;76.20;;;;;;6249873;28;20319;-81
2023/07/20 00:03:23;;;;;;;5.40;5.00;;;16.70;76.40;;;;;;6256682;28;20237;-79
2023/07/20 00:06:27;;;;;;;5.20;4.90;;;16.70;76.40;;;;;;6240438;28;20234;-79
2023/07/20 00:09:30;;;;;;;5.53;5.23;;;16.70;76.40;;;;;;6255176;28;20241;-78
2023/07/20 00:12:35;;;;;;;5.53;5.23;;;16.60;76.70;;;;;;6251917;28;20902;-81
2023/07/20 00:15:39;;;;;;;5.20;5.00;;;16.50;76.90;;;;;;6238414;28;20233;-81
2023/07/20 00:18:43;;;;;;;5.20;5.00;;;16.50;77.00;;;;;;6254213;28;20284;-80
2023/07/20 00:21:46;;;;;;;5.97;5.70;;;16.40;77.00;;;;;;6242242;28;20242;-80
2023/07/20 00:24:49;;;;;;;5.63;5.40;;;16.40;77.20;;;;;;6251838;28;20231;-80
2023/07/20 00:27:54;;;;;;;5.93;5.43;;;16.40;77.20;;;;;;6249513;28;20243;-80
2023/07/20 00:30:57;;;;;;;5.93;5.47;;;16.40;77.30;;;;;;6252434;28;20243;-79
2023/07/20 00:34:00;;;;;;;5.57;5.17;;;16.40;77.30;;;;;;6253663;28;20244;-80
2023/07/20 00:37:03;;;;;;;5.40;5.10;;;16.40;77.30;;;;;;6241353;28;20254;-78
2023/07/20 00:40:07;;;;;;;6.60;6.00;;;16.30;77.50;;;;;;6240727;28;20234;-81
2023/07/20 00:43:12;;;;;;;5.70;5.30;;;16.30;77.40;;;;;;6232607;28;20477;-79
2023/07/20 00:46:15;;;;;;;6.13;5.83;;;16.30;77.40;;;;;;6263994;28;20242;-81
2023/07/20 00:49:21;;;;;;;5.33;5.13;;;16.20;77.60;;;;;;6232144;28;20338;-81
2023/07/20 00:52:26;;;;;;;7.97;7.47;;;16.20;77.50;;;;;;6232926;28;20289;-80
2023/07/20 00:55:30;;;;;;;7.33;6.73;;;16.20;77.60;;;;;;6248322;28;20941;-81
2023/07/20 00:58:35;;;;;;;6.93;6.43;;;16.10;77.70;;;;;;6240188;28;20623;-82
2023/07/20 01:01:38;;;;;;;6.70;6.30;;;16.10;77.60;;;;;;6246456;28;20237;-79
2023/07/20 01:04:42;;;;;;;6.70;6.10;;;16.00;77.70;;;;;;6240822;28;20635;-80
2023/07/20 01:07:53;;;;;;;6.70;6.27;;;16.00;77.70;;;;;;6241413;28;20312;-79
2023/07/20 01:11:04;;;;;;;7.03;6.63;;;16.10;77.60;;;;;;6241974;28;20231;-79
2023/07/20 01:14:08;;;;;;;5.80;5.47;;;16.00;77.70;;;;;;6261776;28;20250;-79
2023/07/20 01:17:13;;;;;;;6.77;6.47;;;16.00;77.70;;;;;;6217436;28;20238;-80
2023/07/20 01:20:21;;;;;;;7.53;7.13;;;16.00;77.90;;;;;;6242449;28;20239;-79
2023/07/20 01:23:59;;;;;;;7.30;6.80;;;16.00;78.00;;;;;;6231358;28;20327;-76
2023/07/20 01:27:34;;;;;;;6.50;6.17;;;16.00;78.00;;;;;;6243404;28;20236;-78
2023/07/20 01:31:00;;;;;;;6.73;6.30;;;16.00;77.90;;;;;;6248326;28;20242;-79
2023/07/20 01:34:06;;;;;;;7.10;6.70;;;16.00;78.10;;;;;;6264134;28;20803;-80
2023/07/20 01:37:11;;;;;;;7.67;7.10;;;16.00;78.20;;;;;;6275175;28;20777;-80
2023/07/20 01:40:15;;;;;;;8.00;7.47;;;16.00;78.10;;;;;;6273150;28;20230;-80
2023/07/20 01:43:19;;;;;;;7.37;6.90;;;15.90;77.90;;;;;;6277109;28;20253;-79
2023/07/20 01:46:22;;;;;;;6.47;6.20;;;15.90;78.00;;;;;;6264421;28;20916;-80
2023/07/20 01:49:27;;;;;;;7.70;7.20;;;15.90;78.00;;;;;;6269490;28;20324;-82
2023/07/20 01:52:31;;;;;;;7.33;6.73;;;15.90;77.90;;;;;;6269672;28;20238;-81
2023/07/20 01:55:34;;;;;;;8.07;7.47;;;15.80;77.90;;;;;;6266965;28;20233;-81
2023/07/20 01:58:37;;;;;;;8.30;7.60;;;15.80;78.00;;;;;;6272084;28;20312;-78
2023/07/20 02:01:41;;;;;;;8.73;8.23;;;15.80;78.10;;;;;;6255411;28;20237;-82
2023/07/20 02:04:45;;;;;;;7.93;7.43;;;15.80;78.20;;;;;;6263213;28;20227;-79
2023/07/20 02:07:49;;;;;;;7.50;7.20;;;15.80;78.30;;;;;;6269266;28;20244;-78
2023/07/20 02:10:53;;;;;;;8.20;7.70;;;15.80;78.40;;;;;;6254455;28;20725;-79
2023/07/20 02:13:56;;;;;;;8.83;8.00;;;15.80;78.40;;;;;;6267942;28;20238;-81
2023/07/20 02:17:01;;;;;;;9.13;8.43;;;15.80;78.50;;;;;;6256483;28;20305;-81
2023/07/20 02:20:08;;;;;;;8.87;8.27;;;15.80;78.40;;;;;;6273582;28;20234;-80
2023/07/20 02:23:11;;;;;;;7.90;7.40;;;15.70;78.30;;;;;;6275936;28;20237;-80
2023/07/20 02:26:15;;;;;;;8.17;7.77;;;15.70;78.40;;;;;;6253742;28;20286;-79
2023/07/20 02:29:20;;;;;;;8.13;7.53;;;15.70;78.20;;;;;;6259917;28;20254;-80
2023/07/20 02:32:23;;;;;;;8.90;8.30;;;15.80;78.30;;;;;;6254762;28;20242;-81
2023/07/20 02:35:27;;;;;;;9.07;8.57;;;15.80;78.10;;;;;;6244329;28;20249;-80
2023/07/20 02:38:33;;;;;;;8.17;7.80;;;15.80;77.60;;;;;;6238087;28;20722;-79
2023/07/20 02:41:36;;;;;;;10.60;9.87;;;15.90;77.50;;;;;;6258875;28;20303;-78
2023/07/20 02:44:40;;;;;;;10.53;9.83;;;15.80;77.70;;;;;;6213785;28;20309;-81
2023/07/20 02:47:43;;;;;;;11.13;10.13;;;15.70;77.90;;;;;;6239840;28;20268;-81
2023/07/20 02:50:47;;;;;;;10.50;9.50;;;15.80;77.90;;;;;;6236112;28;20235;-81
2023/07/20 02:53:50;;;;;;;9.30;8.70;;;15.80;77.80;;;;;;6243108;28;20242;-81
2023/07/20 02:56:54;;;;;;;11.33;10.53;;;15.80;77.80;;;;;;6251349;28;20253;-80
2023/07/20 02:59:57;;;;;;;12.50;11.40;;;15.80;77.70;;;;;;6258968;28;20249;-82
2023/07/20 03:03:00;;;;;;;13.50;12.40;;;15.80;77.50;;;;;;6254838;28;20229;-82
2023/07/20 03:06:05;;;;;;;12.60;11.60;;;15.70;77.50;;;;;;6244235;28;20373;-81
2023/07/20 03:09:09;;;;;;;13.27;12.37;;;15.70;77.50;;;;;;6240688;28;20230;-80
2023/07/20 03:12:12;;;;;;;13.60;12.33;;;15.70;77.40;;;;;;6239659;28;20241;-80
2023/07/20 03:15:15;;;;;;;11.50;10.70;;;15.80;77.20;;;;;;6246339;28;20239;-78
2023/07/20 03:18:18;;;;;;;11.43;10.57;;;15.60;77.40;;;;;;6239541;28;20743;-80
2023/07/20 03:21:23;;;;;;;11.77;10.97;;;15.70;77.40;;;;;;6236584;28;20885;-79
2023/07/20 03:24:26;;;;;;;12.03;11.13;;;15.70;77.40;;;;;;6246905;28;20234;-78
2023/07/20 03:27:29;;;;;;;11.30;10.60;;;15.60;77.60;;;;;;6234859;28;20235;-80
2023/07/20 03:30:32;;;;;;;12.60;11.80;;;15.80;77.40;;;;;;6259212;28;20264;-79
2023/07/20 03:33:36;;;;;;;12.20;11.27;;;15.70;77.50;;;;;;6227694;28;20239;-78
2023/07/20 03:36:40;;;;;;;13.10;12.03;;;15.80;77.40;;;;;;6229430;28;20246;-80
2023/07/20 03:39:43;;;;;;;12.33;11.33;;;15.80;77.50;;;;;;6235043;28;20801;-78
2023/07/20 03:42:46;;;;;;;12.23;11.40;;;15.80;77.30;;;;;;6228055;28;20247;-81
2023/07/20 03:45:50;;;;;;;12.73;11.83;;;15.80;77.40;;;;;;6243929;28;20796;-79
2023/07/20 03:48:53;;;;;;;13.70;12.70;;;15.80;77.20;;;;;;6240334;28;20308;-78
2023/07/20 03:51:57;;;;;;;11.97;11.17;;;15.80;77.20;;;;;;6234726;28;20954;-80
2023/07/20 03:55:00;;;;;;;12.10;11.23;;;15.90;77.20;;;;;;6239201;28;20231;-78
2023/07/20 03:58:04;;;;;;;12.50;11.60;;;15.90;77.00;;;;;;6240645;28;20921;-78
2023/07/20 04:01:08;;;;;;;12.63;11.70;;;15.90;76.90;;;;;;6240654;28;20845;-78
2023/07/20 04:04:11;;;;;;;11.77;10.97;;;15.80;77.10;;;;;;6240736;28;20321;-79
2023/07/20 04:07:15;;;;;;;11.03;10.20;;;15.80;77.20;;;;;;6243344;28;20227;-78
2023/07/20 04:10:18;;;;;;;11.03;10.33;;;15.80;76.70;;;;;;6240866;28;20250;-79
2023/07/20 04:13:21;;;;;;;10.27;9.37;;;15.80;76.90;;;;;;6238310;28;20297;-78
2023/07/20 04:16:26;;;;;;;10.37;9.60;;;15.80;77.30;;;;;;6230034;28;20318;-78
2023/07/20 04:19:29;;;;;;;10.97;10.27;;;15.80;77.40;;;;;;6239375;28;20227;-78
2023/07/20 04:22:33;;;;;;;11.03;10.40;;;15.80;77.10;;;;;;6226136;28;20247;-79
2023/07/20 04:25:39;;;;;;;9.90;9.40;;;15.80;77.40;;;;;;6242327;28;20645;-76
2023/07/20 04:28:43;;;;;;;10.90;10.20;;;15.80;77.40;;;;;;6232574;28;20235;-79
2023/07/20 04:31:46;;;;;;;10.27;9.67;;;15.80;76.80;;;;;;6247952;28;20245;-77
2023/07/20 04:34:49;;;;;;;11.23;10.33;;;15.80;76.70;;;;;;6266301;28;20292;-79
2023/07/20 04:37:54;;;;;;;10.40;9.60;;;15.80;76.60;;;;;;6226363;28;20820;-80
2023/07/20 04:40:57;;;;;;;10.70;10.00;;;15.80;76.90;;;;;;6271105;28;20238;-80
2023/07/20 04:44:00;;;;;;;10.97;10.27;;;15.80;76.80;;;;;;6268574;28;20737;-76
2023/07/20 04:47:03;;;;;;;11.10;10.10;;;15.80;76.80;;;;;;6267032;28;20242;-79
2023/07/20 04:50:07;;;;;;;10.30;9.70;;;15.80;76.80;;;;;;6221176;28;1192356;-79
2023/07/20 04:53:13;;;;;;;11.50;10.30;;;16.00;76.70;;;;;;6256325;28;20485;-78
2023/07/20 04:56:16;;;;;;;9.77;9.17;;;16.00;76.50;;;;;;6264203;28;20225;-78
2023/07/20 04:59:19;;;;;;;10.07;9.43;;;16.00;76.50;;;;;;6265859;28;20229;-76
2023/07/20 05:02:22;;;;;;;10.83;10.23;;;16.10;76.30;;;;;;6263619;28;20226;-77
2023/07/20 05:05:25;;;;;;;9.07;8.40;;;16.20;75.80;;;;;;6261623;28;20230;-77
2023/07/20 05:08:30;;;;;;;9.37;8.87;;;16.20;76.00;;;;;;6269139;28;20605;-77
2023/07/20 05:11:33;;;;;;;9.67;9.00;;;16.40;76.10;;;;;;6250158;28;20234;-77
2023/07/20 05:14:36;;;;;;;9.40;8.63;;;16.60;75.20;;;;;;6257237;28;20292;-78
2023/07/20 05:17:39;;;;;;;8.33;7.57;;;16.70;74.40;;;;;;6261979;28;20233;-75
2023/07/20 05:20:42;;;;;;;7.60;7.20;;;16.80;74.10;;;;;;6260595;28;20234;-78
2023/07/20 05:23:49;;;;;;;7.23;6.93;;;16.90;73.10;;;;;;6246057;28;20323;-78
2023/07/20 05:26:52;;;;;;;7.57;7.17;;;16.90;72.30;;;;;;6270947;28;20249;-77
2023/07/20 05:29:55;;;;;;;6.47;6.27;;;16.90;71.70;;;;;;6261801;28;20621;-78
2023/07/20 05:32:59;;;;;;;6.53;6.23;;;16.80;71.80;;;;;;6269060;28;20293;-77
2023/07/20 05:36:02;;;;;;;6.30;5.67;;;16.80;71.70;;;;;;6258742;28;20234;-78
2023/07/20 05:39:06;;;;;;;7.10;6.70;;;17.00;72.00;;;;;;6268382;28;20321;-77
2023/07/20 05:42:09;;;;;;;6.30;5.87;;;17.20;71.20;;;;;;6257740;28;20233;-78
2023/07/20 05:45:13;;;;;;;7.13;6.83;;;17.20;71.30;;;;;;6263311;28;20232;-78
2023/07/20 05:48:16;;;;;;;7.37;6.70;;;17.30;70.90;;;;;;6263167;28;20340;-78
2023/07/20 05:51:19;;;;;;;6.53;6.00;;;17.40;70.80;;;;;;6269440;28;20278;-78
2023/07/20 05:54:25;;;;;;;6.80;6.40;;;17.60;70.30;;;;;;6267649;28;20926;-79
2023/07/20 05:57:28;;;;;;;7.63;7.10;;;17.80;69.50;;;;;;6269995;28;20238;-77
2023/07/20 06:00:31;;;;;;;6.10;5.80;;;17.80;69.10;;;;;;6274327;28;20366;-77
2023/07/20 06:03:35;;;;;;;8.03;7.43;;;17.70;69.80;;;;;;6259241;28;20246;-78
2023/07/20 06:06:38;;;;;;;7.60;7.20;;;17.80;69.60;;;;;;6260426;28;20339;-77
2023/07/20 06:09:42;;;;;;;9.97;7.70;;;17.70;70.10;;;;;;6259936;28;20240;-79
2023/07/20 06:12:45;;;;;;;8.27;7.57;;;17.70;70.00;;;;;;6259522;28;20246;-78
2023/07/20 06:15:49;;;;;;;7.60;7.10;;;17.40;70.50;;;;;;6268827;28;20256;-78
2023/07/20 06:18:52;;;;;;;8.67;7.57;;;17.40;71.00;;;;;;6272922;28;20279;-77
2023/07/20 06:21:55;;;;;;;8.50;7.90;;;17.30;70.80;;;;;;6263617;28;20265;-79
2023/07/20 06:25:00;;;;;;;8.63;8.13;;;17.30;70.70;;;;;;6262631;28;20274;-76
2023/07/20 06:28:05;;;;;;;7.47;6.90;;;17.20;70.70;;;;;;6281387;28;20244;-77
2023/07/20 06:31:08;;;;;;;6.97;6.43;;;17.20;70.80;;;;;;6276857;28;20709;-76
2023/07/20 06:34:11;;;;;;;7.00;6.70;;;17.50;70.50;;;;;;6256704;28;20260;-77
2023/07/20 06:37:14;;;;;;;7.10;6.60;;;17.60;70.40;;;;;;6263643;28;20241;-76
2023/07/20 06:40:19;;;;;;;6.43;5.90;;;17.80;69.50;;;;;;6260386;28;20242;-77
2023/07/20 06:43:24;;;;;;;5.30;5.10;;;18.00;69.00;;;;;;6241514;28;20268;-78
2023/07/20 06:46:30;;;;;;;5.67;5.33;;;18.00;67.60;;;;;;6255019;28;20324;-78
2023/07/20 06:49:34;;;;;;;6.23;5.63;;;17.80;67.20;;;;;;6268241;28;20309;-80
2023/07/20 06:52:37;;;;;;;5.17;4.77;;;17.80;67.20;;;;;;6255796;28;20257;-77
2023/07/20 06:55:43;;;;;;;4.97;4.70;;;17.80;67.70;;;;;;6241029;28;20269;-78
2023/07/20 06:58:46;;;;;;;4.30;4.00;;;17.80;67.30;;;;;;6260772;28;20823;-78
2023/07/20 07:01:49;;;;;;;3.40;3.30;;;18.30;67.10;;;;;;6259893;28;20327;-78
2023/07/20 07:04:52;;;;;;;3.47;3.27;;;18.70;64.50;;;;;;6251471;28;20265;-78
2023/07/20 07:08:03;;;;;;;3.37;3.10;;;18.80;64.10;;;;;;6247281;28;20245;-79
2023/07/20 07:11:07;;;;;;;3.70;3.37;;;19.20;63.80;;;;;;6235648;28;20308;-78
2023/07/20 07:14:10;;;;;;;3.60;3.40;;;19.70;63.10;;;;;;6256073;28;20237;-78
2023/07/20 07:17:14;;;;;;;2.93;2.77;;;19.70;62.10;;;;;;6254082;28;20380;-78
2023/07/20 07:20:21;;;;;;;3.13;2.37;;;19.50;62.10;;;;;;6259040;28;20226;-78
2023/07/20 07:23:25;;;;;;;2.80;2.50;;;19.10;62.50;;;;;;6226369;28;20336;-76
2023/07/20 07:26:29;;;;;;;2.13;2.13;;;19.20;62.40;;;;;;6236429;28;20247;-77
2023/07/20 07:29:32;;;;;;;2.20;2.07;;;19.50;61.60;;;;;;6235104;28;20238;-81
2023/07/20 07:32:35;;;;;;;2.03;1.93;;;19.90;60.50;;;;;;6233489;28;20230;-78
2023/07/20 07:35:39;;;;;;;2.33;2.10;;;20.30;60.70;;;;;;6240624;28;20258;-77
2023/07/20 07:38:42;;;;;;;2.53;2.13;;;20.60;59.40;;;;;;6240488;28;20429;-80
2023/07/20 07:41:51;;;;;;;1.90;1.90;;;20.60;59.40;;;;;;6232865;28;20239;-78
2023/07/20 07:44:54;;;;;;;2.03;1.90;;;20.50;59.80;;;;;;6244915;28;20249;-79
2023/07/20 07:47:58;;;;;;;1.50;1.50;;;20.00;58.60;;;;;;6241757;28;20313;-79
2023/07/20 07:51:01;;;;;;;1.70;1.60;;;19.70;59.50;;;;;;6233312;28;20321;-78
2023/07/20 07:54:05;;;;;;;2.03;1.93;;;19.80;58.90;;;;;;6244289;28;20245;-76
2023/07/20 07:57:10;;;;;;;3.80;2.10;;;20.00;59.00;;;;;;6231472;28;20730;-81
2023/07/20 08:00:15;;;;;;;2.47;2.37;;;20.30;58.80;;;;;;6241911;28;20318;-79
2023/07/20 08:03:18;;;;;;;2.13;2.00;;;20.30;59.30;;;;;;6237043;28;20286;-76
2023/07/20 08:06:23;;;;;;;2.00;1.90;;;20.40;58.90;;;;;;6236394;28;20235;-78
2023/07/20 08:09:27;;;;;;;2.17;2.07;;;20.50;59.10;;;;;;6252498;28;20313;-78
2023/07/20 08:12:31;;;;;;;1.93;1.93;;;20.60;59.20;;;;;;6223434;28;20955;-77
2023/07/20 08:15:34;;;;;;;2.10;2.10;;;20.50;58.30;;;;;;6231353;28;20263;-78
2023/07/20 08:18:38;;;;;;;1.83;1.70;;;20.30;58.10;;;;;;6243496;28;20780;-79
2023/07/20 08:21:41;;;;;;;1.43;1.43;;;20.30;57.70;;;;;;6230709;28;20266;-78
2023/07/20 08:24:45;;;;;;;1.50;1.40;;;20.30;57.40;;;;;;6232172;28;20381;-78
2023/07/20 08:27:49;;;;;;;1.40;1.30;;;20.30;57.40;;;;;;6234870;28;20698;-76
2023/07/20 08:30:52;;;;;;;1.57;1.57;;;20.50;57.40;;;;;;6235529;28;20242;-82
2023/07/20 08:33:56;;;;;;;1.37;1.37;;;20.50;57.30;;;;;;6232924;28;20234;-78
2023/07/20 08:37:00;;;;;;;1.50;1.50;;;20.70;57.20;;;;;;6236223;28;20250;-80
2023/07/20 08:40:05;;;;;;;1.40;1.40;;;20.90;56.80;;;;;;6232718;28;20238;-81
2023/07/20 08:43:11;;;;;;;1.27;1.27;;;20.90;56.10;;;;;;6227314;28;20676;-77
2023/07/20 08:46:15;;;;;;;1.27;1.27;;;20.90;56.10;;;;;;6222273;28;21123;-78
2023/07/20 08:49:19;;;;;;;1.67;1.57;;;21.10;56.30;;;;;;6240510;28;20325;-77
2023/07/20 08:52:25;;;;;;;1.30;1.30;;;21.00;56.20;;;;;;6226214;28;20235;-78
2023/07/20 08:55:29;;;;;;;1.30;1.30;;;20.70;55.70;;;;;;6187124;28;20246;-80
2023/07/20 08:58:36;;;;;;;2.83;1.30;;;20.30;57.10;;;;;;6231262;28;20365;-79
2023/07/20 09:01:40;;;;;;;1.30;1.20;;;20.10;57.30;;;;;;6253860;28;20870;-78
2023/07/20 09:04:45;;;;;;;1.47;1.47;;;20.20;57.20;;;;;;6239558;28;20291;-80
2023/07/20 09:07:49;;;;;;;1.40;1.40;;;20.30;56.70;;;;;;6226799;28;20243;-77
2023/07/20 09:10:53;;;;;;;2.10;1.40;;;20.40;56.40;;;;;;6241729;28;20258;-76
2023/07/20 09:14:08;;;;;;;1.13;1.13;;;20.50;56.90;;;;;;6243959;28;20232;-76
2023/07/20 09:17:15;;;;;;;1.60;1.50;;;20.30;56.70;;;;;;6239546;28;20249;-77
2023/07/20 09:20:21;;;;;;;2.83;1.60;;;20.70;55.70;;;;;;6227585;28;20235;-78
2023/07/20 09:23:32;;;;;;;1.37;1.27;;;20.90;55.70;;;;;;6231038;28;20637;-76
2023/07/20 09:26:42;;;;;;;1.30;1.30;;;20.80;55.60;;;;;;6232442;28;20230;-79
2023/07/20 09:29:51;;;;;;;1.20;1.20;;;20.90;55.90;;;;;;6231264;28;20241;-80
2023/07/20 09:32:54;;;;;;;1.90;1.50;;;20.60;55.50;;;;;;6237355;28;20244;-76
2023/07/20 09:36:03;;;;;;;1.70;1.30;;;20.60;56.60;;;;;;6251414;28;20242;-78
2023/07/20 09:39:27;;;;;;;1.37;1.37;;;21.10;54.70;;;;;;6221022;28;20231;-81
2023/07/20 09:42:32;;;;;;;1.53;1.17;;;21.50;54.70;;;;;;6239499;28;20613;-79
2023/07/20 09:45:42;;;;;;;1.10;1.10;;;21.40;53.70;;;;;;6239229;28;20287;-79
2023/07/20 09:48:53;;;;;;;1.10;1.10;;;21.40;54.20;;;;;;6246085;28;20231;-78
2023/07/20 09:52:02;;;;;;;1.27;1.27;;;20.90;54.60;;;;;;6236506;28;20464;-81
2023/07/20 09:55:08;;;;;;;1.77;1.67;;;20.30;56.00;;;;;;6235457;28;20235;-79
2023/07/20 09:58:11;;;;;;;1.47;1.47;;;20.10;56.50;;;;;;6228539;28;20250;-78
2023/07/20 10:01:19;;;;;;;1.50;1.50;;;20.00;57.60;;;;;;6240362;28;20266;-78
2023/07/20 10:04:27;;;;;;;1.60;1.60;;;19.70;58.30;;;;;;6228554;28;20705;-78
2023/07/20 10:07:32;;;;;;;1.50;1.50;;;19.50;59.60;;;;;;6235832;28;20230;-80
2023/07/20 10:10:36;;;;;;;1.70;1.60;;;19.30;60.10;;;;;;6228036;28;20364;-77
2023/07/20 10:13:41;;;;;;;1.60;1.60;;;18.90;62.40;;;;;;6231932;28;20247;-79
2023/07/20 10:16:52;;;;;;;1.73;1.70;;;18.90;62.00;;;;;;6227644;28;20240;-77
2023/07/20 10:19:59;;;;;;;2.63;1.90;;;18.80;62.50;;;;;;6232570;28;20235;-77
2023/07/20 10:23:04;;;;;;;1.57;1.57;;;19.00;62.90;;;;;;6239198;28;20244;-77
2023/07/20 10:26:08;;;;;;;2.03;1.93;;;19.20;61.30;;;;;;6238998;28;20230;-85
2023/07/20 10:29:13;;;;;;;2.63;2.00;;;19.20;61.30;;;;;;6233587;28;20364;-78
2023/07/20 10:32:18;;;;;;;1.90;1.80;;;19.30;60.70;;;;;;6230160;28;20249;-77
2023/07/20 10:35:22;;;;;;;1.93;1.83;;;19.20;60.70;;;;;;6250987;28;20234;-77
2023/07/20 10:38:42;;;;;;;1.80;1.70;;;19.20;61.00;;;;;;6239052;28;20234;-78
2023/07/20 10:41:46;;;;;;;2.00;2.00;;;18.80;61.40;;;;;;6216742;28;20731;-78
2023/07/20 10:44:49;;;;;;;1.80;1.80;;;18.70;61.30;;;;;;6243689;28;20231;-79
2023/07/20 10:47:57;;;;;;;1.93;1.93;;;18.90;61.10;;;;;;6235433;28;20242;-80
2023/07/20 10:51:21;;;;;;;3.47;2.27;;;19.10;60.60;;;;;;6227047;28;20237;-77
2023/07/20 10:54:49;;;;;;;2.20;2.00;;;19.20;60.50;;;;;;6228624;28;20235;-79
2023/07/20 10:58:08;;;;;;;3.17;2.20;;;19.40;60.00;;;;;;6223262;28;20267;-77
2023/07/20 11:01:15;;;;;;;2.90;2.07;;;19.20;60.20;;;;;;6225128;28;20333;-76
2023/07/20 11:04:40;;;;;;;3.80;2.37;;;18.90;60.80;;;;;;6236751;28;20246;-79
2023/07/20 11:07:43;;;;;;;1.90;1.80;;;19.00;60.70;;;;;;6254413;28;20918;-78
2023/07/20 11:10:46;;;;;;;2.00;1.90;;;19.30;60.80;;;;;;6225830;28;20299;-78
2023/07/20 11:13:57;;;;;;;2.07;2.07;;;19.50;60.50;;;;;;6238062;28;20302;-77
2023/07/20 11:17:13;;;;;;;1.80;1.80;;;19.60;59.60;;;;;;6235458;28;20853;-78
2023/07/20 11:20:19;;;;;;;2.33;1.80;;;19.70;59.30;;;;;;6239625;28;20234;-79
2023/07/20 11:23:25;;;;;;;3.30;2.03;;;20.00;58.90;;;;;;6263879;28;20234;-78
2023/07/20 11:26:28;;;;;;;1.80;1.80;;;20.00;58.90;;;;;;6257236;28;20870;-78
2023/07/20 11:29:32;;;;;;;3.33;1.93;;;20.00;58.80;;;;;;6263645;28;20765;-79
2023/07/20 11:32:36;;;;;;;2.20;2.00;;;19.90;59.20;;;;;;6263822;28;20234;-78
2023/07/20 11:35:46;;;;;;;1.80;1.70;;;19.60;59.90;;;;;;6272793;28;20239;-78
2023/07/20 11:38:49;;;;;;;2.00;1.90;;;20.00;60.50;;;;;;6256268;28;20236;-79
2023/07/20 11:41:53;;;;;;;1.70;1.70;;;20.20;59.10;;;;;;6261586;28;20280;-79
2023/07/20 11:45:00;;;;;;;1.90;1.60;;;20.20;58.80;;;;;;6256030;28;20246;-77
2023/07/20 11:48:03;;;;;;;1.60;1.60;;;20.20;58.90;;;;;;6267581;28;20267;-77
2023/07/20 11:51:15;;;;;;;1.50;1.50;;;20.50;60.10;;;;;;6238071;28;20228;-79
2023/07/20 11:54:18;;;;;;;1.50;1.40;;;20.50;58.00;;;;;;6229684;28;20241;-79
2023/07/20 11:57:22;;;;;;;1.57;1.53;;;20.70;58.10;;;;;;6246185;28;20238;-79
2023/07/20 12:00:26;;;;;;;1.33;1.30;;;21.10;56.20;;;;;;6246899;28;20237;-79
2023/07/20 12:03:31;;;;;;;1.40;1.40;;;21.30;54.80;;;;;;6237246;28;20731;-78
2023/07/20 12:06:35;;;;;;;1.37;1.37;;;20.80;56.20;;;;;;6243937;28;20257;-79
2023/07/20 12:09:39;;;;;;;1.67;1.67;;;20.50;56.50;;;;;;6237373;28;20247;-79
2023/07/20 12:12:54;;;;;;;3.03;2.00;;;20.00;57.60;;;;;;6222478;28;20748;-79
2023/07/20 12:15:57;;;;;;;1.70;1.60;;;19.90;58.20;;;;;;6242171;28;20265;-78
2023/07/20 12:19:01;;;;;;;1.30;1.30;;;19.70;58.00;;;;;;6234375;28;20241;-78
2023/07/20 12:22:07;;;;;;;1.40;1.40;;;19.60;58.30;;;;;;6240427;28;20368;-79
2023/07/20 12:25:10;;;;;;;1.30;1.27;;;19.70;57.40;;;;;;6242050;28;20617;-79
2023/07/20 12:28:15;;;;;;;1.60;1.60;;;19.90;57.00;;;;;;6228839;28;20238;-78
2023/07/20 12:31:19;;;;;;;1.30;1.30;;;20.30;56.80;;;;;;6241737;28;20520;-77
2023/07/20 12:34:22;;;;;;;1.27;1.27;;;20.60;55.10;;;;;;6246032;28;20642;-77
2023/07/20 12:37:27;;;;;;;1.30;1.30;;;20.60;55.90;;;;;;6248384;28;20340;-77
2023/07/20 12:40:30;;;;;;;2.40;1.60;;;20.80;56.10;;;;;;6227493;28;20251;-78
2023/07/20 12:43:33;;;;;;;1.30;1.30;;;20.80;55.10;;;;;;6224463;28;20861;-78
2023/07/20 12:46:38;;;;;;;1.30;1.30;;;20.80;54.20;;;;;;6227860;28;20251;-79
2023/07/20 12:49:45;;;;;;;1.40;1.40;;;21.00;53.90;;;;;;6248929;28;20241;-80
2023/07/20 12:52:49;;;;;;;1.23;1.23;;;21.30;54.00;;;;;;6225052;28;20234;-81
2023/07/20 12:55:52;;;;;;;1.20;1.20;;;21.50;53.60;;;;;;6233579;28;20821;-83
2023/07/20 12:58:56;;;;;;;1.57;1.47;;;21.40;53.60;;;;;;6228528;28;20250;-78
2023/07/20 13:01:59;;;;;;;1.27;1.27;;;21.10;54.30;;;;;;6233639;28;20231;-77
2023/07/20 13:05:03;;;;;;;1.27;1.27;;;21.30;52.60;;;;;;6244706;28;20229;-79
2023/07/20 13:08:07;;;;;;;1.30;1.30;;;21.50;50.30;;;;;;6250152;28;20313;-78
2023/07/20 13:11:13;;;;;;;1.53;1.30;;;21.50;50.40;;;;;;6229365;28;20263;-80
2023/07/20 13:14:16;;;;;;;1.70;1.30;;;21.40;50.70;;;;;;6240769;28;20230;-79
2023/07/20 13:17:19;;;;;;;1.20;1.20;;;21.50;49.80;;;;;;6236747;28;20749;-80
2023/07/20 13:20:22;;;;;;;1.37;1.30;;;21.70;49.80;;;;;;6235208;28;20733;-80
2023/07/20 13:23:26;;;;;;;1.20;1.20;;;21.90;48.00;;;;;;6228698;28;20330;-77
2023/07/20 13:26:30;;;;;;;1.20;1.20;;;21.90;48.20;;;;;;6237099;28;20240;-79
2023/07/20 13:29:33;;;;;;;1.30;1.30;;;21.90;47.60;;;;;;6241183;28;20234;-78
2023/07/20 13:32:36;;;;;;;1.00;1.00;;;22.10;47.80;;;;;;6239047;28;20249;-79
2023/07/20 13:35:39;;;;;;;1.20;1.10;;;22.10;46.90;;;;;;6229354;28;20288;-78
2023/07/20 13:38:48;;;;;;;1.30;1.30;;;22.20;47.10;;;;;;6236709;28;20278;-79
2023/07/20 13:41:51;;;;;;;1.40;1.40;;;22.30;47.30;;;;;;6228976;28;20759;-79
2023/07/20 13:44:54;;;;;;;1.00;1.00;;;22.50;45.50;;;;;;6258395;28;20234;-79
2023/07/20 13:47:58;;;;;;;2.27;1.37;;;22.60;46.00;;;;;;6255509;28;20231;-77
2023/07/20 13:51:05;;;;;;;1.20;1.20;;;22.60;46.00;;;;;;6245214;28;20235;-79
2023/07/20 13:54:11;;;;;;;1.40;1.40;;;22.80;46.30;;;;;;6252945;28;20749;-78
2023/07/20 13:57:17;;;;;;;1.20;1.20;;;23.00;46.10;;;;;;6241866;28;20257;-80
2023/07/20 14:00:20;;;;;;;1.13;1.13;;;23.10;45.90;;;;;;6224596;28;20393;-79
2023/07/20 14:03:25;;;;;;;1.20;1.20;;;23.20;46.00;;;;;;6237305;28;20242;-79
2023/07/20 14:06:32;;;;;;;1.20;1.20;;;23.10;45.70;;;;;;6239782;28;20239;-78
2023/07/20 14:09:37;;;;;;;1.37;1.30;;;23.20;45.40;;;;;;6247169;28;20234;-76
2023/07/20 14:13:00;;;;;;;1.30;1.20;;;23.10;46.10;;;;;;6243566;28;20238;-77
2023/07/20 14:16:04;;;;;;;1.50;1.50;;;23.10;46.00;;;;;;6234898;28;20294;-79
2023/07/20 14:19:07;;;;;;;1.20;1.20;;;23.40;45.40;;;;;;6233279;28;20918;-79
2023/07/20 14:22:10;;;;;;;1.30;1.30;;;23.50;46.20;;;;;;6229466;28;20326;-79
2023/07/20 14:25:16;;;;;;;1.30;1.30;;;23.60;45.20;;;;;;6250866;28;20371;-79
2023/07/20 14:28:22;;;;;;;1.40;1.40;;;23.40;45.00;;;;;;6242033;28;21096;-80
2023/07/20 14:31:26;;;;;;;1.63;1.53;;;23.50;44.60;;;;;;6236942;28;21047;-78
2023/07/20 14:34:29;;;;;;;2.20;1.50;;;23.60;43.60;;;;;;6223720;28;20235;-80
2023/07/20 14:37:32;;;;;;;2.27;1.30;;;23.70;44.00;;;;;;6241700;28;20364;-79
2023/07/20 14:40:36;;;;;;;1.40;1.40;;;23.70;43.70;;;;;;6226766;28;20266;-77
2023/07/20 14:43:39;;;;;;;1.50;1.50;;;23.80;43.70;;;;;;6257739;28;20340;-79
2023/07/20 14:46:42;;;;;;;1.43;1.33;;;23.70;44.00;;;;;;6248523;28;20250;-81
2023/07/20 14:49:56;;;;;;;1.70;1.27;;;23.60;43.80;;;;;;6261612;28;20386;-79
2023/07/20 14:53:00;;;;;;;1.77;1.40;;;23.40;44.60;;;;;;6274169;28;20325;-78
2023/07/20 14:56:10;;;;;;;1.20;1.20;;;23.40;44.20;;;;;;6259842;28;20495;-79
2023/07/20 14:59:13;;;;;;;1.20;1.20;;;23.30;44.00;;;;;;6260473;28;20708;-78
2023/07/20 15:02:16;;;;;;;1.57;1.57;;;23.40;44.30;;;;;;6259172;28;20277;-77
2023/07/20 15:05:23;;;;;;;1.30;1.30;;;23.30;43.80;;;;;;6273067;28;20298;-78
2023/07/20 15:08:26;;;;;;;1.27;1.27;;;23.40;43.60;;;;;;6276050;28;20232;-79
2023/07/20 15:11:33;;;;;;;2.40;1.80;;;23.30;44.20;;;;;;6252715;28;20295;-80
2023/07/20 15:14:36;;;;;;;1.30;1.20;;;23.30;44.10;;;;;;6269217;28;20229;-79
2023/07/20 15:17:41;;;;;;;1.67;1.57;;;23.40;44.00;;;;;;6266523;28;20372;-79
2023/07/20 15:20:47;;;;;;;1.30;1.30;;;23.40;44.40;;;;;;6268534;28;20371;-76
2023/07/20 15:23:50;;;;;;;1.70;1.70;;;23.50;44.60;;;;;;6267845;28;20229;-77
2023/07/20 15:26:55;;;;;;;1.37;1.37;;;23.40;44.70;;;;;;6241683;28;20265;-78
2023/07/20 15:29:58;;;;;;;1.80;1.33;;;23.20;44.70;;;;;;6271976;28;20253;-81
2023/07/20 15:33:01;;;;;;;1.40;1.30;;;23.00;44.90;;;;;;6252715;28;20252;-82
2023/07/20 15:36:08;;;;;;;1.13;1.13;;;23.00;45.10;;;;;;6276114;28;20642;-79
2023/07/20 15:39:11;;;;;;;1.40;1.40;;;23.30;44.30;;;;;;6254412;28;20246;-77
2023/07/20 15:42:15;;;;;;;2.10;1.60;;;23.60;44.30;;;;;;6259735;28;20241;-81
2023/07/20 15:45:18;;;;;;;1.40;1.40;;;23.50;44.10;;;;;;6257088;28;20234;-77
2023/07/20 15:48:23;;;;;;;1.60;1.60;;;23.60;44.00;;;;;;6267285;28;20234;-79
2023/07/20 15:51:26;;;;;;;1.60;1.60;;;23.60;43.90;;;;;;6267772;28;20268;-80
2023/07/20 15:54:29;;;;;;;1.77;1.60;;;23.70;43.50;;;;;;6249002;28;20241;-79
2023/07/20 15:57:34;;;;;;;1.50;1.50;;;23.70;43.10;;;;;;6237290;28;20229;-78